createdAt,value
2022-08-05T00:01:48.278Z,19.22
2022-08-05T00:04:19.742Z,19.23
2022-08-05T00:06:51.916Z,19.24
2022-08-05T00:09:20.245Z,19.24
2022-08-05T00:11:55.340Z,19.22
2022-08-05T00:14:27.702Z,19.20
2022-08-05T00:16:57.785Z,19.18
2022-08-05T00:19:33.673Z,19.16
2022-08-05T00:22:13.346Z,19.14
2022-08-05T00:24:42.283Z,19.15
2022-08-05T00:27:16.558Z,19.17
2022-08-05T00:29:45.436Z,19.17
2022-08-05T00:32:15.349Z,19.18
2022-08-05T00:35:05.245Z,19.19
2022-08-05T00:37:50.420Z,19.20
2022-08-05T00:40:26.790Z,19.17
2022-08-05T00:42:58.698Z,19.15
2022-08-05T00:45:37.829Z,19.13
2022-08-05T00:48:09.252Z,19.12
2022-08-05T00:50:38.934Z,19.12
2022-08-05T00:53:59.858Z,19.13
2022-08-05T00:55:57.188Z,19.12
2022-08-05T00:58:27.657Z,19.12
2022-08-05T01:00:55.852Z,19.12
2022-08-05T01:03:24.365Z,19.09
2022-08-05T01:05:58.734Z,19.06
2022-08-05T01:08:41.180Z,19.05
2022-08-05T01:11:21.729Z,19.06
2022-08-05T01:14:11.806Z,19.05
2022-08-05T01:17:17.425Z,19.05
2022-08-05T01:20:09.611Z,19.01
2022-08-05T01:22:57.805Z,18.96
2022-08-05T01:25:54.021Z,18.92
2022-08-05T01:28:42.563Z,18.87
2022-08-05T01:31:16.771Z,18.85
2022-08-05T01:34:04.969Z,18.84
2022-08-05T01:36:47.063Z,18.79
2022-08-05T01:39:45.780Z,18.80
2022-08-05T01:42:12.373Z,18.77
2022-08-05T01:44:54.228Z,18.78
2022-08-05T01:47:24.673Z,18.77
2022-08-05T01:50:18.715Z,18.76
2022-08-05T01:53:02.297Z,18.74
2022-08-05T01:55:36.342Z,18.73
2022-08-05T01:58:12.867Z,18.73
2022-08-05T02:00:50.269Z,18.73
2022-08-05T02:03:38.991Z,18.72
2022-08-05T02:06:33.881Z,18.69
2022-08-05T02:08:59.026Z,18.69
2022-08-05T02:11:37.565Z,18.68
2022-08-05T02:14:20.854Z,18.70
2022-08-05T02:16:54.391Z,18.73
2022-08-05T02:19:28.171Z,18.76
2022-08-05T02:22:25.822Z,18.79
2022-08-05T02:25:08.359Z,18.77
2022-08-05T02:27:59.382Z,18.71
2022-08-05T02:30:54.598Z,18.67
2022-08-05T02:33:36.133Z,18.61
2022-08-05T02:36:13.564Z,18.56
2022-08-05T02:38:53.356Z,18.49
2022-08-05T02:41:29.010Z,18.46
2022-08-05T02:44:13.844Z,18.45
2022-08-05T02:46:58.298Z,18.44
2022-08-05T02:49:37.887Z,18.42
2022-08-05T02:52:30.201Z,18.41
2022-08-05T02:55:05.562Z,18.38
2022-08-05T02:58:11.485Z,18.33
2022-08-05T03:00:29.554Z,18.27
2022-08-05T03:02:59.157Z,18.29
2022-08-05T03:06:55.670Z,18.33
2022-08-05T03:08:17.023Z,18.33
2022-08-05T03:11:53.165Z,18.30
2022-08-05T03:13:52.198Z,18.26
2022-08-05T03:16:29.901Z,18.24
2022-08-05T03:19:01.414Z,18.21
2022-08-05T03:21:41.706Z,18.19
2022-08-05T03:24:26.856Z,18.17
2022-08-05T03:27:01.211Z,18.12
2022-08-05T03:29:45.120Z,18.08
2022-08-05T03:32:19.508Z,18.05
2022-08-05T03:34:51.302Z,18.06
2022-08-05T03:37:23.495Z,18.04
2022-08-05T03:40:01.202Z,18.03
2022-08-05T03:42:32.127Z,18.01
2022-08-05T03:45:01.832Z,18.00
2022-08-05T03:47:49.349Z,18.00
2022-08-05T03:50:17.220Z,18.02
2022-08-05T03:55:00.017Z,18.05
2022-08-05T03:56:11.922Z,18.06
2022-08-05T03:58:46.062Z,18.07
2022-08-05T04:01:20.885Z,18.07
2022-08-05T04:03:56.898Z,18.09
2022-08-05T04:06:37.953Z,18.10
2022-08-05T04:09:06.625Z,18.14
2022-08-05T04:11:50.454Z,18.16
2022-08-05T04:14:29.400Z,18.19
2022-08-05T04:17:00.699Z,18.18
2022-08-05T04:19:29.659Z,18.13
2022-08-05T04:22:09.131Z,18.09
2022-08-05T04:24:52.623Z,18.07
2022-08-05T04:27:33.240Z,18.05
2022-08-05T04:30:09.930Z,18.03
2022-08-05T04:32:38.032Z,18.01
2022-08-05T04:35:07.771Z,17.98
2022-08-05T04:38:01.061Z,17.98
2022-08-05T04:40:37.838Z,18.02
2022-08-05T04:43:16.318Z,18.05
2022-08-05T04:45:48.792Z,18.07
2022-08-05T04:48:27.354Z,18.10
2022-08-05T04:51:03.304Z,18.09
2022-08-05T04:53:38.621Z,17.98
2022-08-05T04:56:32.832Z,17.86
2022-08-05T04:58:56.948Z,17.78
2022-08-05T05:01:59.644Z,17.75
2022-08-05T05:04:12.625Z,17.72
2022-08-05T05:06:49.393Z,17.74
2022-08-05T05:09:24.971Z,17.65
2022-08-05T05:11:56.834Z,17.56
2022-08-05T05:14:32.058Z,17.49
2022-08-05T05:17:00.664Z,17.49
2022-08-05T05:19:36.496Z,17.49
2022-08-05T05:22:23.510Z,17.47
2022-08-05T05:25:00.143Z,17.52
2022-08-05T05:27:44.866Z,17.52
2022-08-05T05:30:31.341Z,17.53
2022-08-05T05:33:16.001Z,17.52
2022-08-05T05:35:46.997Z,17.51
2022-08-05T05:38:22.649Z,17.53
2022-08-05T05:40:56.471Z,17.58
2022-08-05T05:43:56.382Z,17.62
2022-08-05T05:46:17.470Z,17.66
2022-08-05T05:48:48.541Z,17.70
2022-08-05T05:51:25.716Z,17.73
2022-08-05T05:53:59.302Z,17.74
2022-08-05T05:56:32.883Z,17.76
2022-08-05T05:59:07.395Z,17.75
2022-08-05T06:01:39.772Z,17.75
2022-08-05T06:04:14.469Z,17.76
2022-08-05T06:06:47.689Z,17.80
2022-08-05T06:09:24.845Z,17.82
2022-08-05T06:12:01.146Z,17.85
2022-08-05T06:14:31.283Z,17.89
2022-08-05T06:17:01.993Z,17.95
2022-08-05T06:19:56.309Z,17.98
2022-08-05T06:22:30.513Z,18.03
2022-08-05T06:25:24.321Z,18.11
2022-08-05T06:28:10.865Z,18.15
2022-08-05T06:30:43.646Z,18.20
2022-08-05T06:33:11.086Z,18.24
2022-08-05T06:36:07.489Z,18.29
2022-08-05T06:38:36.529Z,18.30
2022-08-05T06:41:07.983Z,18.34
2022-08-05T06:43:59.012Z,18.39
2022-08-05T06:46:29.673Z,18.44
2022-08-05T06:49:00.983Z,18.50
2022-08-05T06:51:31.074Z,18.55
2022-08-05T06:54:04.409Z,18.59
2022-08-05T06:56:34.754Z,18.64
2022-08-05T06:59:09.705Z,18.69
2022-08-05T07:01:41.547Z,18.75
2022-08-05T07:04:10.280Z,18.81
2022-08-05T07:06:37.998Z,18.85
2022-08-05T07:09:05.636Z,18.88
2022-08-05T07:11:36.815Z,18.93
2022-08-05T07:14:29.612Z,18.95
2022-08-05T07:18:02.353Z,18.96
2022-08-05T07:20:31.550Z,19.00
2022-08-05T07:22:38.802Z,19.06
2022-08-05T07:25:24.050Z,19.13
2022-08-05T07:27:57.363Z,19.21
2022-08-05T07:30:32.118Z,19.26
2022-08-05T07:33:09.359Z,19.34
2022-08-05T07:36:01.875Z,19.40
2022-08-05T07:38:32.412Z,19.43
2022-08-05T07:42:08.289Z,19.51
2022-08-05T07:44:14.132Z,19.57
2022-08-05T07:46:42.123Z,19.62
2022-08-05T07:49:16.179Z,19.68
2022-08-05T07:51:54.539Z,19.75
2022-08-05T07:54:30.924Z,19.81
2022-08-05T07:57:17.695Z,19.82
2022-08-05T07:59:52.320Z,19.86
2022-08-05T08:02:31.388Z,19.93
2022-08-05T08:05:15.446Z,19.96
2022-08-05T08:07:59.686Z,19.98
2022-08-05T08:10:30.138Z,20.04
2022-08-05T08:12:58.776Z,20.08
2022-08-05T08:16:35.754Z,20.14
2022-08-05T08:18:14.695Z,20.23
2022-08-05T08:21:03.094Z,20.32
2022-08-05T08:24:01.408Z,20.43
2022-08-05T08:26:26.716Z,20.53
2022-08-05T08:29:21.698Z,20.67
2022-08-05T08:31:48.631Z,20.71
2022-08-05T08:34:30.569Z,20.71
2022-08-05T08:37:03.247Z,20.69
2022-08-05T08:39:37.405Z,20.64
2022-08-05T08:42:27.566Z,20.72
2022-08-05T08:45:18.684Z,20.80
2022-08-05T08:48:10.434Z,20.91
2022-08-05T08:51:03.455Z,21.03
2022-08-05T08:53:37.008Z,21.12
2022-08-05T08:56:06.626Z,21.23
2022-08-05T08:58:43.098Z,21.36
2022-08-05T09:01:16.368Z,21.40
2022-08-05T09:03:55.071Z,21.46
2022-08-05T09:06:30.601Z,21.52
2022-08-05T09:09:00.993Z,21.48
2022-08-05T09:11:52.767Z,21.44
2022-08-05T09:14:58.532Z,21.37
2022-08-05T09:17:16.092Z,21.30
2022-08-05T09:20:05.448Z,21.33
2022-08-05T09:23:19.810Z,21.40
2022-08-05T09:26:01.420Z,21.48
2022-08-05T09:28:34.735Z,21.54
2022-08-05T09:31:23.353Z,21.57
2022-08-05T09:33:55.124Z,21.62
2022-08-05T09:36:27.775Z,21.66
2022-08-05T09:39:16.580Z,21.72
2022-08-05T09:42:01.572Z,21.85
2022-08-05T09:44:49.363Z,21.93
2022-08-05T09:47:29.479Z,21.90
2022-08-05T09:50:18.219Z,21.78
2022-08-05T09:53:02.089Z,21.64
2022-08-05T09:55:58.686Z,21.53
2022-08-05T09:58:26.279Z,21.38
2022-08-05T10:01:14.982Z,21.32
2022-08-05T10:04:29.408Z,21.22
2022-08-05T10:06:59.609Z,21.18
2022-08-05T10:09:29.833Z,21.12
2022-08-05T10:12:30.736Z,21.12
2022-08-05T10:15:20.854Z,21.15
2022-08-05T10:18:16.882Z,21.26
2022-08-05T10:20:56.703Z,21.48
2022-08-05T10:23:55.128Z,21.77
2022-08-05T10:26:24.264Z,21.95
2022-08-05T10:28:59.751Z,22.13
2022-08-05T10:32:54.989Z,22.33
2022-08-05T10:34:17.017Z,22.49
2022-08-05T10:36:46.380Z,22.59
2022-08-05T10:39:58.906Z,22.76
2022-08-05T10:42:33.728Z,23.06
2022-08-05T10:45:20.980Z,23.36
2022-08-05T10:48:29.919Z,23.61
2022-08-05T10:51:21.750Z,23.84
2022-08-05T10:53:56.045Z,23.93
2022-08-05T10:56:39.586Z,24.07
2022-08-05T11:00:01.269Z,24.21
2022-08-05T11:02:38.371Z,24.39
2022-08-05T11:05:10.441Z,24.48
2022-08-05T11:08:33.832Z,24.52
2022-08-05T11:11:44.783Z,24.45
2022-08-05T11:14:57.784Z,24.50
2022-08-05T11:17:57.884Z,24.38
2022-08-05T11:20:43.940Z,24.19
2022-08-05T11:23:33.174Z,24.18
2022-08-05T11:26:10.881Z,24.20
2022-08-05T11:28:43.174Z,24.25
2022-08-05T11:31:11.201Z,24.33
2022-08-05T11:33:48.198Z,24.41
2022-08-05T11:36:34.278Z,24.44
2022-08-05T11:39:55.244Z,24.63
2022-08-05T11:42:40.338Z,24.77
2022-08-05T11:46:16.182Z,24.91
2022-08-05T11:48:36.372Z,24.83
2022-08-05T11:51:08.411Z,24.64
2022-08-05T11:53:42.030Z,24.41
2022-08-05T11:56:11.362Z,24.19
2022-08-05T11:58:43.432Z,24.04
2022-08-05T12:01:22.591Z,24.12
2022-08-05T12:03:57.055Z,24.19
2022-08-05T12:06:30.373Z,24.12
2022-08-05T12:08:59.667Z,24.02
2022-08-05T12:11:40.183Z,24.08
2022-08-05T12:14:10.271Z,24.22
2022-08-05T12:16:45.168Z,24.41
2022-08-05T12:20:25.539Z,24.56
2022-08-05T12:22:07.892Z,24.77
2022-08-05T12:24:49.418Z,24.75
2022-08-05T12:27:32.475Z,24.64
2022-08-05T12:30:15.569Z,24.49
2022-08-05T12:32:51.229Z,24.32
2022-08-05T12:35:21.710Z,24.14
2022-08-05T12:37:50.021Z,23.97
2022-08-05T12:40:26.827Z,23.86
2022-08-05T12:42:57.181Z,23.78
2022-08-05T12:45:49.642Z,23.68
2022-08-05T12:48:27.509Z,23.61
2022-08-05T12:52:11.210Z,23.78
2022-08-05T12:54:04.605Z,23.96
2022-08-05T12:56:54.029Z,24.09
2022-08-05T13:00:08.915Z,24.18
2022-08-05T13:02:21.333Z,24.23
2022-08-05T13:04:55.896Z,24.32
2022-08-05T13:07:55.934Z,24.38
2022-08-05T13:10:19.884Z,24.43
2022-08-05T13:12:57.518Z,24.45
2022-08-05T13:15:35.932Z,24.41
2022-08-05T13:18:18.826Z,24.41
2022-08-05T13:20:50.083Z,24.34
2022-08-05T13:23:22.410Z,24.22
2022-08-05T13:25:59.682Z,24.15
2022-08-05T13:28:29.073Z,24.20
2022-08-05T13:31:00.015Z,24.32
2022-08-05T13:34:23.836Z,24.46
2022-08-05T13:36:27.133Z,24.55
2022-08-05T13:38:57.267Z,24.63
2022-08-05T13:41:36.107Z,24.72
2022-08-05T13:44:05.208Z,24.74
2022-08-05T13:46:37.702Z,24.73
2022-08-05T13:49:12.676Z,24.78
2022-08-05T13:51:46.096Z,24.91
2022-08-05T13:54:21.118Z,25.03
2022-08-05T13:56:54.664Z,25.09
2022-08-05T13:59:24.853Z,25.16
2022-08-05T14:02:00.008Z,25.24
2022-08-05T14:04:51.703Z,25.29
2022-08-05T14:08:00.228Z,25.31
2022-08-05T14:10:28.959Z,25.35
2022-08-05T14:12:59.846Z,25.43
2022-08-05T14:16:09.088Z,25.52
2022-08-05T14:18:18.321Z,25.66
2022-08-05T14:20:48.170Z,25.81
2022-08-05T14:23:23.862Z,25.97
2022-08-05T14:25:58.795Z,26.08
2022-08-05T14:28:28.797Z,25.89
2022-08-05T14:31:01.509Z,25.59
2022-08-05T14:33:32.439Z,25.34
2022-08-05T14:36:21.683Z,24.99
2022-08-05T14:38:51.200Z,24.75
2022-08-05T14:41:18.960Z,24.57
2022-08-05T14:44:02.435Z,24.63
2022-08-05T14:46:35.067Z,24.80
2022-08-05T14:49:07.571Z,24.90
2022-08-05T14:51:38.877Z,24.92
2022-08-05T14:54:29.894Z,24.72
2022-08-05T14:56:59.881Z,24.50
2022-08-05T14:59:29.551Z,24.32
2022-08-05T15:02:15.774Z,24.14
2022-08-05T15:04:47.692Z,24.12
2022-08-05T15:08:06.188Z,24.21
2022-08-05T15:10:03.952Z,24.38
2022-08-05T15:12:51.620Z,24.60
2022-08-05T15:15:55.323Z,24.73
2022-08-05T15:18:07.857Z,24.61
2022-08-05T15:20:37.541Z,24.40
2022-08-05T15:23:11.143Z,24.23
2022-08-05T15:25:53.777Z,24.00
2022-08-05T15:28:27.426Z,23.97
2022-08-05T15:30:56.488Z,23.96
2022-08-05T15:34:05.630Z,24.01
2022-08-05T15:36:17.798Z,24.10
2022-08-05T15:40:59.157Z,24.02
2022-08-05T15:41:56.171Z,23.78
2022-08-05T15:44:30.217Z,23.55
2022-08-05T15:47:04.271Z,23.36
2022-08-05T15:49:48.216Z,23.19
2022-08-05T15:52:51.647Z,23.16
2022-08-05T15:55:16.122Z,23.30
2022-08-05T15:57:45.128Z,23.39
2022-08-05T16:00:16.900Z,23.39
2022-08-05T16:02:54.158Z,23.29
2022-08-05T16:05:22.834Z,23.19
2022-08-05T16:07:57.218Z,23.07
2022-08-05T16:10:25.603Z,22.99
2022-08-05T16:12:56.124Z,22.89
2022-08-05T16:15:24.361Z,22.79
2022-08-05T16:18:00.195Z,22.65
2022-08-05T16:20:27.920Z,22.48
2022-08-05T16:22:55.606Z,22.38
2022-08-05T16:25:34.031Z,22.46
2022-08-05T16:28:06.056Z,22.43
2022-08-05T16:30:36.087Z,22.32
2022-08-05T16:33:04.007Z,22.38
2022-08-05T16:35:33.628Z,22.55
2022-08-05T16:38:24.606Z,22.79
2022-08-05T16:41:00.194Z,23.02
2022-08-05T16:43:32.212Z,23.13
2022-08-05T16:46:12.818Z,23.20
2022-08-05T16:48:50.485Z,23.28
2022-08-05T16:51:18.823Z,23.34
2022-08-05T16:54:02.764Z,23.38
2022-08-05T16:56:35.351Z,23.47
2022-08-05T16:59:10.619Z,23.59
2022-08-05T17:01:53.576Z,23.71
2022-08-05T17:04:28.266Z,23.81
2022-08-05T17:07:01.080Z,23.76
2022-08-05T17:09:31.015Z,23.75
2022-08-05T17:12:18.393Z,23.78
2022-08-05T17:14:50.315Z,23.82
2022-08-05T17:17:17.871Z,23.84
2022-08-05T17:19:47.223Z,23.88
2022-08-05T17:22:25.571Z,23.77
2022-08-05T17:24:57.640Z,23.49
2022-08-05T17:27:33.607Z,23.19
2022-08-05T17:30:18.757Z,22.88
2022-08-05T17:32:55.251Z,22.54
2022-08-05T17:35:23.008Z,22.39
2022-08-05T17:37:50.691Z,22.26
2022-08-05T17:40:22.468Z,22.18
2022-08-05T17:42:52.983Z,22.09
2022-08-05T17:45:24.875Z,22.06
2022-08-05T17:47:56.097Z,22.10
2022-08-05T17:50:28.771Z,22.17
2022-08-05T17:53:01.531Z,22.28
2022-08-05T17:55:38.449Z,22.37
2022-08-05T17:58:14.550Z,22.40
2022-08-05T18:00:50.765Z,22.40
2022-08-05T18:06:11.535Z,22.23
2022-08-05T18:08:44.490Z,22.09
2022-08-05T18:11:23.135Z,21.96
2022-08-05T18:13:52.899Z,21.77
2022-08-05T18:16:21.583Z,21.56
2022-08-05T18:18:49.951Z,21.37
2022-08-05T18:21:21.233Z,21.20
2022-08-05T18:23:53.690Z,21.05
2022-08-05T18:26:27.658Z,20.87
2022-08-05T18:28:58.228Z,20.72
2022-08-05T18:31:33.902Z,20.58
2022-08-05T18:34:06.154Z,20.38
2022-08-05T18:36:35.505Z,20.21
2022-08-05T18:39:22.349Z,20.09
2022-08-05T18:42:01.179Z,20.00
2022-08-05T18:44:49.239Z,19.92
2022-08-05T18:47:26.603Z,19.85
2022-08-05T18:50:15.629Z,19.73
2022-08-05T18:52:50.948Z,19.60
2022-08-05T18:55:21.544Z,19.50
2022-08-05T18:57:53.902Z,19.41
2022-08-05T19:00:30.679Z,19.28
2022-08-05T19:03:03.796Z,19.17
2022-08-05T19:06:13.041Z,19.05
2022-08-05T19:08:30.925Z,18.94
2022-08-05T19:10:59.642Z,18.85
2022-08-05T19:13:35.956Z,18.75
2022-08-05T19:16:25.173Z,18.65
2022-08-05T19:21:36.213Z,18.40
2022-08-05T19:24:12.203Z,18.30
2022-08-05T19:26:43.882Z,18.21
2022-08-05T19:29:26.638Z,18.11
2022-08-05T19:32:17.729Z,17.99
2022-08-05T19:34:55.317Z,17.88
2022-08-05T19:37:30.103Z,17.79
2022-08-05T19:40:12.639Z,17.69
2022-08-05T19:42:42.842Z,17.61
2022-08-05T19:45:30.578Z,17.53
2022-08-05T19:48:06.114Z,17.47
2022-08-05T19:50:34.900Z,17.41
2022-08-05T19:53:10.706Z,17.37
2022-08-05T19:56:14.879Z,17.31
2022-08-05T19:58:29.211Z,17.25
2022-08-05T20:00:58.467Z,17.20
2022-08-05T20:03:26.457Z,17.16
2022-08-05T20:05:56.664Z,17.12
2022-08-05T20:08:24.815Z,17.07
2022-08-05T20:10:53.652Z,17.02
2022-08-05T20:13:54.582Z,16.98
2022-08-05T20:16:09.983Z,16.92
2022-08-05T20:18:38.580Z,16.88
2022-08-05T20:21:07.478Z,16.84
2022-08-05T20:23:40.079Z,16.80
2022-08-05T20:26:24.851Z,16.73
2022-08-05T20:28:57.339Z,16.66
2022-08-05T20:31:37.323Z,16.61
2022-08-05T20:34:11.628Z,16.54
2022-08-05T20:36:43.181Z,16.49
2022-08-05T20:39:16.466Z,16.42
2022-08-05T20:41:46.716Z,16.35
2022-08-05T20:44:30.521Z,16.28
2022-08-05T20:47:05.305Z,16.22
2022-08-05T20:49:39.532Z,16.16
2022-08-05T20:52:08.618Z,16.11
2022-08-05T20:54:43.631Z,16.05
2022-08-05T20:57:42.018Z,16.00
2022-08-05T21:00:35.048Z,15.94
2022-08-05T21:03:07.588Z,15.87
2022-08-05T21:05:54.060Z,15.82
2022-08-05T21:08:28.053Z,15.75
2022-08-05T21:11:10.067Z,15.66
2022-08-05T21:13:47.462Z,15.62
2022-08-05T21:16:30.169Z,15.53
2022-08-05T21:19:01.995Z,15.48
2022-08-05T21:21:44.455Z,15.41
2022-08-05T21:24:19.657Z,15.35
2022-08-05T21:26:57.909Z,15.31
2022-08-05T21:29:32.214Z,15.26
2022-08-05T21:32:02.286Z,15.20
2022-08-05T21:34:31.468Z,15.15
2022-08-05T21:36:59.377Z,15.10
2022-08-05T21:39:27.925Z,15.07
2022-08-05T21:42:01.538Z,15.01
2022-08-05T21:44:31.734Z,14.98
2022-08-05T21:47:00.422Z,14.95
2022-08-05T21:49:59.367Z,14.91
2022-08-05T21:52:27.467Z,14.84
2022-08-05T21:55:06.935Z,14.79
2022-08-05T21:57:42.653Z,14.77
2022-08-05T22:00:12.820Z,14.73
2022-08-05T22:02:42.665Z,14.71
2022-08-05T22:05:12.409Z,14.67
2022-08-05T22:07:59.116Z,14.65
2022-08-05T22:10:28.168Z,14.60
2022-08-05T22:12:59.001Z,14.58
2022-08-05T22:16:01.397Z,14.55
2022-08-05T22:18:25.848Z,14.49
2022-08-05T22:20:53.747Z,14.47
2022-08-05T22:24:02.269Z,14.44
2022-08-05T22:26:49.608Z,14.41
2022-08-05T22:29:26.470Z,14.34
2022-08-05T22:31:59.376Z,14.30
2022-08-05T22:34:30.951Z,14.27
2022-08-05T22:36:59.231Z,14.24
2022-08-05T22:39:33.654Z,14.20
2022-08-05T22:42:09.564Z,14.11
2022-08-05T22:44:39.479Z,14.05
2022-08-05T22:47:07.913Z,14.04
2022-08-05T22:50:18.361Z,14.01
2022-08-05T22:52:32.550Z,13.98
2022-08-05T22:55:04.469Z,13.96
2022-08-05T22:57:51.955Z,13.92
2022-08-05T23:00:24.277Z,13.90
2022-08-05T23:02:54.153Z,13.86
2022-08-05T23:05:22.880Z,13.84
2022-08-05T23:07:51.933Z,13.81
2022-08-05T23:10:23.591Z,13.78
2022-08-05T23:12:55.533Z,13.75
2022-08-05T23:15:30.025Z,13.71
2022-08-05T23:18:11.355Z,13.65
2022-08-05T23:20:39.537Z,13.61
2022-08-05T23:23:08.522Z,13.57
2022-08-05T23:25:52.477Z,13.54
2022-08-05T23:28:23.031Z,13.48
2022-08-05T23:30:53.968Z,13.46
2022-08-05T23:33:26.484Z,13.43
2022-08-05T23:36:11.167Z,13.40
2022-08-05T23:38:42.780Z,13.39
2022-08-05T23:41:11.144Z,13.37
2022-08-05T23:44:03.161Z,13.37
2022-08-05T23:46:40.632Z,13.35
2022-08-05T23:49:16.927Z,13.32
2022-08-05T23:52:05.760Z,13.30
2022-08-05T23:54:38.422Z,13.26
2022-08-05T23:57:08.080Z,13.23
